Sunny Acres, Indiana
Current Conditions -  °F | °C
As of 12:54 PM on Monday 24 Nov 2014 (Local Time) from KFWA Reporting Station
Overcast Overcast  
Wind Chill: 25°   Ceiling: 2000
Heat Index: 38°   Visibility: 10mi
Dew Point: 32°   Wind: 37mph
Humidity: 79%   Direction: 240°WSW
Pressure: 29.4"   Gusts: 51mph
Location:  40.8317°N, 84.9398°W
Report Text: KFWA 241754Z 24032G44KT 10SM OVC020 03/00 A2940 RMK AO2 PK WND 24052/1733 RAE04B36E46 SLP958 P0000 60018 T00330000 10133 20033 51078
Loading
Personal Weather Stations






























Interactive Weather Map New forecast layout! Learn more

10-Day Weather Forecast

Advertisements
Track Severe Weather on mobile